Time;durP1;ratioP1;P1;durP2;ratioP2;P2;SDS_P1;SDS_P2;PMS_P1;PMS_P2;Temp;Humidity;BMP_temperature;BMP_pressure;BME280_temperature;BME280_humidity;BME280_pressure;Samples;Min_cycle;Max_cycle;Signal;HPM_P1;HPM_P2
2021/03/07 00:00:14;;;;;;;18.47;7.97;;;-1.30;99.90;;;;;;5034098;28;20221;-77
2021/03/07 00:02:41;;;;;;;9.73;6.28;;;-1.30;99.90;;;;;;5034087;28;20193;-76
2021/03/07 00:05:08;;;;;;;9.30;6.40;;;-1.20;99.90;;;;;;5034987;28;20266;-76
2021/03/07 00:07:34;;;;;;;6.85;5.63;;;-1.40;99.90;;;;;;5035353;28;20167;-79
2021/03/07 00:10:00;;;;;;;9.37;5.37;;;-1.30;99.90;;;;;;5035349;28;20676;-78
2021/03/07 00:12:25;;;;;;;7.70;5.27;;;-1.30;99.90;;;;;;5035522;28;20179;-77
2021/03/07 00:14:51;;;;;;;7.87;5.43;;;-1.50;99.90;;;;;;5034802;28;20445;-77
2021/03/07 00:17:17;;;;;;;10.77;5.70;;;-1.40;99.90;;;;;;5035223;28;20179;-76
2021/03/07 00:19:42;;;;;;;7.83;5.47;;;-1.40;99.90;;;;;;5034872;28;20530;-77
2021/03/07 00:22:08;;;;;;;7.20;5.60;;;-1.50;99.90;;;;;;5035162;28;20643;-77
2021/03/07 00:24:34;;;;;;;9.80;5.90;;;-1.40;99.90;;;;;;5034650;28;20557;-76
2021/03/07 00:27:00;;;;;;;6.53;5.47;;;-1.40;99.90;;;;;;5035104;28;20174;-77
2021/03/07 00:29:26;;;;;;;8.30;5.33;;;-1.50;99.90;;;;;;5034996;28;20174;-78
2021/03/07 00:31:52;;;;;;;8.52;5.38;;;-1.50;99.90;;;;;;5034950;28;20174;-77
2021/03/07 00:34:18;;;;;;;6.23;4.93;;;-1.50;99.90;;;;;;5034512;28;20766;-78
2021/03/07 00:36:44;;;;;;;7.03;4.97;;;-1.50;99.90;;;;;;5034780;28;20186;-78
2021/03/07 00:39:09;;;;;;;7.10;5.13;;;-1.70;99.90;;;;;;5034986;28;20591;-79
2021/03/07 00:41:35;;;;;;;7.60;5.47;;;-1.70;99.90;;;;;;5034812;28;20190;-77
2021/03/07 00:44:02;;;;;;;9.27;5.07;;;-1.60;99.90;;;;;;5034324;28;20560;-77
2021/03/07 00:46:27;;;;;;;6.15;5.05;;;-1.70;99.90;;;;;;5034693;28;20581;-77
2021/03/07 00:48:53;;;;;;;12.20;7.37;;;-1.70;99.90;;;;;;5034552;28;20174;-77
2021/03/07 00:51:19;;;;;;;8.40;5.53;;;-1.90;99.90;;;;;;5034558;28;20240;-77
2021/03/07 00:53:44;;;;;;;6.73;5.20;;;-2.00;99.90;;;;;;5034255;28;20229;-77
2021/03/07 00:56:10;;;;;;;8.37;5.30;;;-1.80;99.90;;;;;;5034611;28;20174;-78
2021/03/07 00:58:36;;;;;;;6.20;4.95;;;-1.80;99.90;;;;;;5034423;28;20178;-77
2021/03/07 01:01:02;;;;;;;6.83;5.20;;;-2.00;99.90;;;;;;5034229;28;20567;-77
2021/03/07 01:03:27;;;;;;;5.33;4.47;;;-2.00;99.90;;;;;;5033987;28;20288;-78
2021/03/07 01:05:53;;;;;;;6.97;5.03;;;-2.00;99.90;;;;;;5034293;28;20174;-78
2021/03/07 01:08:18;;;;;;;8.70;5.80;;;-2.20;99.90;;;;;;5034349;28;20173;-77
2021/03/07 01:10:45;;;;;;;8.43;5.40;;;-2.10;99.90;;;;;;5033479;28;20178;-77
2021/03/07 01:13:13;;;;;;;10.23;6.00;;;-2.10;99.90;;;;;;5034230;28;20186;-77
2021/03/07 01:15:40;;;;;;;8.60;5.60;;;-2.10;99.90;;;;;;5034126;28;20554;-77
2021/03/07 01:18:06;;;;;;;8.93;6.53;;;-2.30;99.90;;;;;;5034176;28;20170;-76
2021/03/07 01:20:34;;;;;;;9.17;5.63;;;-2.30;99.90;;;;;;5034046;28;20212;-78
2021/03/07 01:23:00;;;;;;;8.77;6.47;;;-2.20;99.90;;;;;;5033553;28;20424;-75
2021/03/07 01:25:33;;;;;;;9.80;5.60;;;-2.20;99.90;;;;;;5033971;28;20433;-78
2021/03/07 01:28:04;;;;;;;7.85;5.60;;;-2.30;99.90;;;;;;5034019;28;20166;-77
2021/03/07 01:30:31;;;;;;;7.13;5.28;;;-2.30;99.90;;;;;;5032276;28;20283;-77
2021/03/07 01:32:56;;;;;;;7.10;4.90;;;-2.30;99.90;;;;;;5033600;28;20174;-77
2021/03/07 01:35:22;;;;;;;7.20;5.40;;;-2.40;99.90;;;;;;5033370;28;20205;-78
2021/03/07 01:37:49;;;;;;;8.18;5.60;;;-2.40;99.90;;;;;;5032470;28;20182;-78
2021/03/07 01:40:18;;;;;;;9.27;6.10;;;-2.30;99.90;;;;;;5033517;28;20306;-77
2021/03/07 01:42:52;;;;;;;7.88;5.38;;;-2.50;99.90;;;;;;5033637;28;20166;-77
2021/03/07 01:45:20;;;;;;;9.38;5.90;;;-2.40;99.90;;;;;;5033116;28;20201;-77
2021/03/07 01:47:51;;;;;;;7.70;6.45;;;-2.40;99.90;;;;;;5033521;28;20209;-77
2021/03/07 01:50:19;;;;;;;6.88;6.03;;;-2.50;99.90;;;;;;5033575;28;20571;-77
2021/03/07 01:52:46;;;;;;;6.65;5.10;;;-2.60;99.90;;;;;;5033456;28;20189;-77
2021/03/07 01:55:15;;;;;;;7.63;6.82;;;-2.60;99.90;;;;;;5033084;28;20638;-77
2021/03/07 01:57:43;;;;;;;6.03;5.22;;;-2.70;99.90;;;;;;5033411;28;20255;-77
2021/03/07 02:00:10;;;;;;;9.98;6.00;;;-2.70;99.90;;;;;;5033310;28;20272;-78
2021/03/07 02:02:36;;;;;;;7.60;5.15;;;-2.60;99.90;;;;;;5033334;28;20170;-76
2021/03/07 02:05:10;;;;;;;7.10;5.40;;;-2.70;99.90;;;;;;5032871;28;20679;-78
2021/03/07 02:07:37;;;;;;;11.93;6.25;;;-2.60;99.90;;;;;;5033141;28;20174;-77
2021/03/07 02:10:05;;;;;;;7.35;5.85;;;-2.80;99.90;;;;;;5033257;28;20577;-76
2021/03/07 02:12:33;;;;;;;10.27;6.60;;;-2.80;99.90;;;;;;5033325;28;20174;-77
2021/03/07 02:15:00;;;;;;;8.95;5.60;;;-2.80;99.90;;;;;;5032815;28;20193;-77
2021/03/07 02:17:26;;;;;;;16.15;5.80;;;-2.70;99.90;;;;;;5033506;28;20248;-76
2021/03/07 02:19:52;;;;;;;6.63;5.93;;;-2.80;99.90;;;;;;5032984;28;20757;-77
2021/03/07 02:22:36;;;;;;;6.68;5.40;;;-2.80;99.90;;;;;;5033269;28;21045;-76
2021/03/07 02:25:11;;;;;;;9.68;5.35;;;-2.90;99.90;;;;;;5032981;28;20217;-77
2021/03/07 02:27:37;;;;;;;8.30;5.60;;;-3.00;99.90;;;;;;5033111;28;20165;-77
2021/03/07 02:30:08;;;;;;;6.93;5.03;;;-2.90;99.90;;;;;;5033065;28;20697;-76
2021/03/07 02:32:42;;;;;;;7.07;6.05;;;-2.90;99.90;;;;;;5033218;28;20497;-77
2021/03/07 02:35:14;;;;;;;6.85;5.47;;;-3.00;99.90;;;;;;5032535;28;20624;-77
2021/03/07 02:37:44;;;;;;;7.97;5.65;;;-3.10;99.90;;;;;;5032891;28;20176;-77
2021/03/07 02:40:12;;;;;;;10.15;6.28;;;-2.90;99.90;;;;;;5033026;28;20199;-77
2021/03/07 02:42:42;;;;;;;8.88;5.60;;;-3.00;99.90;;;;;;5034279;28;20170;-77
2021/03/07 02:45:10;;;;;;;15.75;6.53;;;-3.10;99.90;;;;;;5036599;28;20197;-77
2021/03/07 02:47:39;;;;;;;9.20;6.13;;;-3.10;99.90;;;;;;5036783;28;20193;-78
2021/03/07 02:50:11;;;;;;;8.35;6.22;;;-3.10;99.90;;;;;;5036783;28;20213;-77
2021/03/07 02:52:38;;;;;;;14.68;5.88;;;-3.10;99.90;;;;;;5036661;28;20178;-77
2021/03/07 02:55:07;;;;;;;9.70;6.35;;;-3.20;99.90;;;;;;5035165;28;20209;-77
2021/03/07 02:57:35;;;;;;;8.85;6.00;;;-3.10;99.90;;;;;;5035419;28;20863;-76
2021/03/07 03:00:03;;;;;;;8.82;5.63;;;-3.10;99.90;;;;;;5036534;28;20264;-77
2021/03/07 03:02:30;;;;;;;9.70;6.50;;;-3.10;99.90;;;;;;5036619;28;20535;-77
2021/03/07 03:04:58;;;;;;;10.05;6.00;;;-3.00;99.90;;;;;;5036144;28;20269;-77
2021/03/07 03:07:26;;;;;;;11.55;6.55;;;-3.10;99.90;;;;;;5036660;28;20535;-77
2021/03/07 03:09:53;;;;;;;11.02;7.75;;;-3.10;99.90;;;;;;5035068;28;20642;-77
2021/03/07 03:12:20;;;;;;;11.02;7.63;;;-3.20;99.90;;;;;;5036467;28;20182;-77
2021/03/07 03:14:46;;;;;;;11.85;8.73;;;-3.20;99.90;;;;;;5036178;28;20283;-77
2021/03/07 03:17:14;;;;;;;10.70;8.05;;;-3.40;99.90;;;;;;5036385;28;20178;-77
2021/03/07 03:19:42;;;;;;;7.70;6.32;;;-3.30;99.90;;;;;;5036284;28;20189;-77
2021/03/07 03:22:07;;;;;;;12.85;7.45;;;-3.30;99.90;;;;;;5036096;28;20201;-77
2021/03/07 03:24:34;;;;;;;10.97;6.27;;;-3.30;99.90;;;;;;5036025;28;20190;-77
2021/03/07 03:27:03;;;;;;;12.55;6.80;;;-3.30;99.90;;;;;;5036215;28;20817;-78
2021/03/07 03:29:30;;;;;;;12.27;6.90;;;-3.40;99.90;;;;;;5036123;28;20257;-78
2021/03/07 03:31:56;;;;;;;10.00;6.68;;;-3.20;99.90;;;;;;5036166;28;20181;-77
2021/03/07 03:34:22;;;;;;;13.48;7.43;;;-3.30;99.90;;;;;;5035687;28;20217;-77
2021/03/07 03:36:48;;;;;;;12.20;6.80;;;-3.40;99.90;;;;;;5036364;28;20174;-77
2021/03/07 03:39:21;;;;;;;11.43;7.17;;;-3.40;99.90;;;;;;5035888;28;20209;-78
2021/03/07 03:41:59;;;;;;;11.13;6.63;;;-3.40;99.90;;;;;;5036114;28;20177;-78
2021/03/07 03:44:29;;;;;;;13.77;7.50;;;-3.40;99.90;;;;;;5035599;28;20198;-77
2021/03/07 03:46:57;;;;;;;10.45;8.32;;;-3.40;99.90;;;;;;5036055;28;20186;-77
2021/03/07 03:49:34;;;;;;;12.88;8.00;;;-3.50;99.90;;;;;;5035759;28;20178;-78
2021/03/07 03:52:08;;;;;;;14.35;10.10;;;-3.50;99.90;;;;;;5034354;28;20662;-78
2021/03/07 03:54:52;;;;;;;12.57;8.57;;;-3.50;99.90;;;;;;5034491;28;20562;-78
2021/03/07 03:57:20;;;;;;;14.50;9.30;;;-3.50;99.90;;;;;;5035716;28;20207;-77
2021/03/07 03:59:48;;;;;;;13.25;8.60;;;-3.50;99.90;;;;;;5035504;28;20532;-77
2021/03/07 04:02:14;;;;;;;13.38;9.30;;;-3.50;99.90;;;;;;5035433;28;20508;-77
2021/03/07 04:04:40;;;;;;;10.57;7.80;;;-3.60;99.90;;;;;;5034968;28;20189;-78
2021/03/07 04:07:08;;;;;;;11.63;8.43;;;-3.60;99.90;;;;;;5035588;28;20173;-77
2021/03/07 04:09:35;;;;;;;11.48;8.40;;;-3.60;99.90;;;;;;5035415;28;20413;-78
2021/03/07 04:12:03;;;;;;;16.10;9.55;;;-3.80;99.90;;;;;;5035378;28;20178;-77
2021/03/07 04:14:29;;;;;;;9.68;8.00;;;-3.70;99.90;;;;;;5034768;28;20748;-77
2021/03/07 04:16:55;;;;;;;12.52;8.68;;;-3.70;99.90;;;;;;5035216;28;20178;-77
2021/03/07 04:19:23;;;;;;;13.32;10.05;;;-3.80;99.90;;;;;;5035154;28;20178;-78
2021/03/07 04:21:49;;;;;;;15.95;9.60;;;-3.70;99.90;;;;;;5035518;28;20634;-77
2021/03/07 04:24:15;;;;;;;13.80;9.60;;;-3.80;99.90;;;;;;5034670;28;20206;-77
2021/03/07 04:26:41;;;;;;;13.90;10.55;;;-3.70;99.90;;;;;;5035279;28;20412;-78
2021/03/07 04:29:07;;;;;;;14.00;10.00;;;-3.80;99.90;;;;;;5035008;28;20223;-78
2021/03/07 04:31:34;;;;;;;13.43;9.03;;;-3.90;99.90;;;;;;5035118;28;20182;-78
2021/03/07 04:34:00;;;;;;;13.90;9.07;;;-4.00;99.90;;;;;;5034495;28;20460;-77
2021/03/07 04:36:27;;;;;;;13.52;10.35;;;-3.90;99.90;;;;;;5034958;28;20209;-78
2021/03/07 04:38:53;;;;;;;23.42;10.52;;;-4.00;99.90;;;;;;5034923;28;20588;-77
2021/03/07 04:41:18;;;;;;;13.20;9.57;;;-3.90;99.90;;;;;;5034736;28;20204;-78
2021/03/07 04:43:51;;;;;;;12.03;8.73;;;-3.90;99.90;;;;;;5034431;28;20190;-78
2021/03/07 04:46:21;;;;;;;13.98;10.10;;;-3.90;99.90;;;;;;5034717;28;20170;-78
2021/03/07 04:48:47;;;;;;;16.20;10.32;;;-3.90;99.90;;;;;;5034710;28;20206;-78
2021/03/07 04:51:13;;;;;;;15.05;10.65;;;-3.90;99.90;;;;;;5034825;28;20181;-78
2021/03/07 04:53:39;;;;;;;18.13;9.50;;;-4.00;99.90;;;;;;5034333;28;20232;-77
2021/03/07 04:56:05;;;;;;;14.80;9.57;;;-4.00;99.90;;;;;;5034473;28;20209;-78
2021/03/07 04:58:31;;;;;;;14.60;9.33;;;-4.10;99.90;;;;;;5034501;28;20246;-78
2021/03/07 05:00:56;;;;;;;16.77;9.43;;;-4.10;99.90;;;;;;5034303;28;20463;-77
2021/03/07 05:03:22;;;;;;;19.73;9.60;;;-4.20;99.90;;;;;;5034059;28;20185;-77
2021/03/07 05:05:48;;;;;;;11.63;8.57;;;-4.10;99.90;;;;;;5033392;28;20172;-78
2021/03/07 05:08:14;;;;;;;16.15;9.15;;;-4.20;99.90;;;;;;5034311;28;20174;-77
2021/03/07 05:10:40;;;;;;;13.37;9.50;;;-4.20;99.90;;;;;;5034230;28;20631;-77
2021/03/07 05:13:06;;;;;;;13.40;8.77;;;-4.20;99.90;;;;;;5033696;28;20239;-78
2021/03/07 05:15:31;;;;;;;12.03;8.43;;;-4.40;99.90;;;;;;5034124;28;20408;-78
2021/03/07 05:17:57;;;;;;;24.03;9.73;;;-4.40;99.90;;;;;;5033966;28;20265;-77
2021/03/07 05:20:22;;;;;;;14.33;10.27;;;-4.20;99.90;;;;;;5034196;28;20202;-78
2021/03/07 05:22:48;;;;;;;11.27;8.10;;;-4.30;99.90;;;;;;5033916;28;20184;-78
2021/03/07 05:25:14;;;;;;;21.97;10.00;;;-4.30;99.90;;;;;;5033753;28;20752;-77
2021/03/07 05:27:40;;;;;;;15.17;9.40;;;-4.40;99.90;;;;;;5033838;28;20178;-77
2021/03/07 05:30:06;;;;;;;15.38;9.98;;;-4.40;99.90;;;;;;5034035;28;20427;-77
2021/03/07 05:32:31;;;;;;;13.52;9.80;;;-4.30;99.90;;;;;;5032679;28;20745;-76
2021/03/07 05:34:57;;;;;;;20.07;10.77;;;-4.30;99.90;;;;;;5033206;28;20306;-78
2021/03/07 05:37:22;;;;;;;15.97;11.00;;;-4.30;99.90;;;;;;5032461;28;20288;-78
2021/03/07 05:39:48;;;;;;;17.70;10.27;;;-4.30;99.90;;;;;;5033845;28;20198;-77
2021/03/07 05:42:14;;;;;;;14.10;9.33;;;-4.40;99.90;;;;;;5034024;28;20179;-78
2021/03/07 05:44:40;;;;;;;14.20;10.23;;;-4.30;99.90;;;;;;5033251;28;20195;-77
2021/03/07 05:47:06;;;;;;;12.95;9.85;;;-4.30;99.90;;;;;;5033522;28;20166;-77
2021/03/07 05:49:32;;;;;;;13.70;10.20;;;-4.40;99.90;;;;;;5033567;28;20170;-78
2021/03/07 05:52:00;;;;;;;17.60;10.30;;;-4.50;99.90;;;;;;5033475;28;20170;-78
2021/03/07 05:54:26;;;;;;;15.10;10.32;;;-4.50;99.90;;;;;;5033012;28;20197;-78
2021/03/07 05:56:52;;;;;;;19.48;10.48;;;-4.40;99.90;;;;;;5033456;28;20268;-77
2021/03/07 05:59:19;;;;;;;17.08;12.20;;;-4.30;99.90;;;;;;5033190;28;20181;-77
2021/03/07 06:01:45;;;;;;;20.02;11.50;;;-4.10;99.90;;;;;;5033364;28;20172;-77
2021/03/07 06:04:11;;;;;;;16.90;11.57;;;-4.20;99.90;;;;;;5033013;28;20197;-77
2021/03/07 06:06:36;;;;;;;17.77;11.20;;;-4.40;99.90;;;;;;5033367;28;20254;-77
2021/03/07 06:09:18;;;;;;;18.73;11.90;;;-4.30;99.90;;;;;;5031919;28;20429;-77
2021/03/07 06:11:46;;;;;;;22.08;11.48;;;-4.30;99.90;;;;;;5033227;28;20188;-77
2021/03/07 06:14:28;;;;;;;14.68;10.65;;;-4.20;99.90;;;;;;5032911;28;20190;-77
2021/03/07 06:17:14;;;;;;;17.08;10.25;;;-4.30;99.90;;;;;;5032772;28;20558;-77
2021/03/07 06:20:13;;;;;;;13.95;9.85;;;-4.40;99.90;;;;;;5033057;28;20278;-78
2021/03/07 06:22:39;;;;;;;15.32;11.23;;;-4.50;99.90;;;;;;5000369;28;20228;-78
2021/03/07 06:25:12;;;;;;;20.20;11.63;;;-4.60;99.90;;;;;;5032683;28;20186;-76
2021/03/07 06:27:38;;;;;;;23.45;12.90;;;-4.50;99.90;;;;;;5033293;28;20174;-78
2021/03/07 06:30:10;;;;;;;24.00;13.47;;;-4.60;99.90;;;;;;5033289;28;20276;-78
2021/03/07 06:32:42;;;;;;;19.92;12.10;;;-4.60;99.90;;;;;;5031785;28;20451;-78
2021/03/07 06:35:10;;;;;;;23.55;10.93;;;-4.50;99.90;;;;;;5032601;28;20214;-77
2021/03/07 06:38:02;;;;;;;21.20;11.50;;;-4.50;99.90;;;;;;5032866;28;20683;-77
2021/03/07 06:40:34;;;;;;;21.55;12.32;;;-4.50;99.90;;;;;;5031866;28;20304;-78
2021/03/07 06:43:04;;;;;;;16.50;11.75;;;-4.40;99.90;;;;;;5032766;28;20180;-78
2021/03/07 06:45:42;;;;;;;20.25;13.52;;;-4.30;99.90;;;;;;5032834;28;20231;-77
2021/03/07 06:48:08;;;;;;;20.88;11.80;;;-4.10;99.90;;;;;;5032901;28;20578;-77
2021/03/07 06:50:35;;;;;;;18.40;12.95;;;-4.10;99.90;;;;;;5032893;28;20228;-77
2021/03/07 06:53:01;;;;;;;17.40;12.65;;;-4.00;99.90;;;;;;5031340;28;20271;-78
2021/03/07 06:55:42;;;;;;;18.52;13.57;;;-4.00;99.90;;;;;;5032841;28;20193;-77
2021/03/07 06:58:17;;;;;;;16.23;12.77;;;-3.90;99.90;;;;;;5032839;28;20182;-77
2021/03/07 07:00:44;;;;;;;17.88;12.27;;;-3.80;99.90;;;;;;5032954;28;20312;-78
2021/03/07 07:03:15;;;;;;;22.95;14.32;;;-3.80;99.90;;;;;;5032357;28;20584;-77
2021/03/07 07:05:48;;;;;;;18.98;13.30;;;-3.70;99.90;;;;;;5032702;28;20175;-77
2021/03/07 07:08:17;;;;;;;22.60;13.95;;;-3.50;99.90;;;;;;5032723;28;20563;-77
2021/03/07 07:10:56;;;;;;;19.48;13.25;;;-3.50;99.90;;;;;;5032698;28;20559;-77
2021/03/07 07:13:23;;;;;;;19.30;13.63;;;-3.50;99.90;;;;;;5032391;28;20177;-76
2021/03/07 07:16:18;;;;;;;16.52;11.98;;;-3.50;99.90;;;;;;5032424;28;20178;-77
2021/03/07 07:18:45;;;;;;;19.08;13.00;;;-3.40;99.90;;;;;;5023892;28;20554;-77
2021/03/07 07:21:14;;;;;;;23.13;14.13;;;-3.30;99.90;;;;;;5032545;28;20663;-77
2021/03/07 07:23:40;;;;;;;18.88;13.82;;;-3.20;99.90;;;;;;5032373;28;20603;-77
2021/03/07 07:26:06;;;;;;;18.57;13.00;;;-2.90;99.90;;;;;;5031446;28;20186;-77
2021/03/07 07:28:34;;;;;;;17.20;14.02;;;-3.00;99.90;;;;;;5032715;28;20170;-77
2021/03/07 07:31:01;;;;;;;20.77;14.10;;;-2.90;99.90;;;;;;5035719;28;20174;-76
2021/03/07 07:33:35;;;;;;;20.90;15.10;;;-2.70;99.90;;;;;;5035714;28;20286;-77
2021/03/07 07:36:02;;;;;;;25.63;15.13;;;-2.70;99.90;;;;;;5035959;28;20213;-77
2021/03/07 07:38:29;;;;;;;23.90;14.80;;;-2.70;99.90;;;;;;5035977;28;20228;-77
2021/03/07 07:40:55;;;;;;;19.27;15.07;;;-2.50;99.90;;;;;;5035746;28;20241;-77
2021/03/07 07:43:21;;;;;;;19.63;15.00;;;-2.40;99.90;;;;;;5035648;28;20670;-77
2021/03/07 07:45:46;;;;;;;22.70;13.87;;;-2.40;99.90;;;;;;5036170;28;20182;-76
2021/03/07 07:48:31;;;;;;;20.07;14.40;;;-2.40;99.90;;;;;;5035971;28;20166;-76
2021/03/07 07:50:57;;;;;;;21.02;15.23;;;-2.30;99.90;;;;;;5035794;28;20174;-78
2021/03/07 07:53:22;;;;;;;22.77;16.43;;;-2.20;99.90;;;;;;5035131;28;20239;-78
2021/03/07 07:55:48;;;;;;;25.67;15.57;;;-2.00;99.90;;;;;;5035840;28;20174;-77
2021/03/07 07:58:36;;;;;;;19.48;14.73;;;-2.10;99.90;;;;;;5035482;28;20644;-77
2021/03/07 08:01:12;;;;;;;21.73;15.40;;;-1.90;99.90;;;;;;5034358;28;20209;-77
2021/03/07 08:03:40;;;;;;;20.58;15.50;;;-1.90;99.90;;;;;;5035148;28;20186;-78
2021/03/07 08:06:13;;;;;;;22.55;15.93;;;-1.80;99.90;;;;;;5035267;28;20213;-77
2021/03/07 08:08:43;;;;;;;21.25;15.13;;;-1.40;99.90;;;;;;5035531;28;20198;-77
2021/03/07 08:11:17;;;;;;;19.60;14.90;;;-1.40;99.90;;;;;;5035471;28;20170;-77
2021/03/07 08:13:45;;;;;;;21.33;14.98;;;-1.40;99.90;;;;;;5034978;28;20193;-77
2021/03/07 08:16:11;;;;;;;22.63;14.75;;;-1.30;99.90;;;;;;5035117;28;20172;-77
2021/03/07 08:18:51;;;;;;;20.17;14.43;;;-1.30;99.90;;;;;;5033943;28;20205;-77
2021/03/07 08:21:19;;;;;;;19.63;14.80;;;-1.30;99.90;;;;;;5035141;28;20558;-78
2021/03/07 08:24:01;;;;;;;18.70;15.13;;;-1.30;99.90;;;;;;5034686;28;20191;-78
2021/03/07 08:26:45;;;;;;;19.80;15.35;;;-1.20;99.90;;;;;;5023578;28;20177;-77
2021/03/07 08:29:38;;;;;;;20.83;15.98;;;-1.30;99.90;;;;;;5025766;28;20189;-77
2021/03/07 08:32:34;;;;;;;22.00;15.15;;;-1.20;99.90;;;;;;5034077;28;20602;-78
2021/03/07 08:35:02;;;;;;;23.20;15.27;;;-1.10;99.90;;;;;;5031851;28;20237;-78
2021/03/07 08:37:30;;;;;;;23.95;15.73;;;-0.90;99.90;;;;;;5034133;28;20278;-77
2021/03/07 08:40:31;;;;;;;21.00;14.52;;;-0.70;99.90;;;;;;5034553;28;20197;-77
2021/03/07 08:43:16;;;;;;;23.98;15.57;;;-0.40;99.90;;;;;;5033661;28;20215;-77
2021/03/07 08:46:10;;;;;;;19.85;15.80;;;-0.40;99.90;;;;;;5033366;28;20236;-78
2021/03/07 08:48:45;;;;;;;18.65;15.20;;;-0.30;99.90;;;;;;5032240;28;20174;-77
2021/03/07 08:51:13;;;;;;;25.27;15.73;;;-0.40;99.90;;;;;;5033137;28;20651;-77
2021/03/07 08:53:43;;;;;;;25.17;16.42;;;0.00;99.90;;;;;;5034073;28;20200;-77
2021/03/07 08:56:10;;;;;;;21.67;16.48;;;0.00;99.90;;;;;;5033974;28;20264;-77
2021/03/07 08:58:38;;;;;;;20.85;16.98;;;0.00;99.90;;;;;;5034405;28;20174;-77
2021/03/07 09:01:04;;;;;;;25.90;16.98;;;0.20;99.90;;;;;;5034511;28;20206;-77
2021/03/07 09:03:30;;;;;;;18.25;15.35;;;0.50;99.90;;;;;;5032707;28;20194;-77
2021/03/07 09:05:56;;;;;;;21.73;15.70;;;0.40;99.90;;;;;;5034108;28;20184;-79
2021/03/07 09:08:27;;;;;;;21.07;15.07;;;0.60;99.90;;;;;;5033963;28;20572;-77
2021/03/07 09:10:59;;;;;;;20.40;15.88;;;0.80;99.90;;;;;;5032981;28;20400;-78
2021/03/07 09:13:27;;;;;;;24.35;15.52;;;1.10;99.90;;;;;;5033649;28;20200;-77
2021/03/07 09:15:54;;;;;;;46.75;23.90;;;1.40;99.90;;;;;;5033776;28;20691;-78
2021/03/07 09:18:23;;;;;;;26.63;17.48;;;1.60;99.90;;;;;;5032930;28;20190;-78
2021/03/07 09:20:51;;;;;;;16.40;12.73;;;1.70;99.90;;;;;;5033684;28;20280;-78
2021/03/07 09:23:35;;;;;;;16.00;12.57;;;2.50;99.90;;;;;;5032704;28;20214;-79
2021/03/07 09:26:05;;;;;;;11.88;10.50;;;2.40;99.90;;;;;;5033570;28;20247;-78
2021/03/07 09:28:33;;;;;;;19.17;11.82;;;2.70;99.90;;;;;;5033678;28;20174;-76
2021/03/07 09:31:00;;;;;;;14.40;11.90;;;3.10;99.90;;;;;;5032974;28;20253;-78
2021/03/07 09:33:28;;;;;;;28.48;26.15;;;2.80;99.90;;;;;;5031762;28;20202;-78
2021/03/07 09:36:24;;;;;;;26.02;23.60;;;3.30;99.90;;;;;;5033292;28;20678;-77
2021/03/07 09:38:56;;;;;;;37.33;33.55;;;3.30;99.90;;;;;;5024130;28;20563;-78
2021/03/07 09:41:37;;;;;;;93.45;85.72;;;3.30;99.90;;;;;;5033511;28;20206;-77
2021/03/07 09:44:09;;;;;;;13.20;10.35;;;3.20;99.90;;;;;;5032522;28;20284;-78
2021/03/07 09:46:34;;;;;;;10.40;9.15;;;4.20;99.90;;;;;;5033302;28;20585;-78
2021/03/07 09:49:05;;;;;;;12.73;11.10;;;4.40;99.90;;;;;;5033210;28;20266;-78
2021/03/07 09:51:35;;;;;;;12.30;10.30;;;4.60;99.90;;;;;;5032637;28;20413;-77
2021/03/07 09:54:01;;;;;;;12.50;10.00;;;4.40;99.90;;;;;;5032381;28;20194;-77
2021/03/07 09:56:34;;;;;;;12.50;10.40;;;3.90;99.90;;;;;;5033075;28;20508;-77
2021/03/07 09:59:18;;;;;;;13.87;9.50;;;4.60;99.90;;;;;;5032513;28;20409;-78
2021/03/07 10:01:48;;;;;;;11.30;9.40;;;3.80;99.90;;;;;;5033336;28;20437;-76
2021/03/07 10:04:36;;;;;;;13.93;10.23;;;4.30;99.90;;;;;;5030645;28;20475;-76
2021/03/07 10:07:21;;;;;;;11.50;10.27;;;4.50;99.90;;;;;;5032788;28;20413;-78
2021/03/07 10:10:01;;;;;;;12.43;8.87;;;5.40;99.90;;;;;;5032889;28;20485;-78
2021/03/07 10:12:40;;;;;;;10.53;8.07;;;5.30;99.90;;;;;;5032459;28;20405;-77
2021/03/07 10:15:07;;;;;;;11.40;8.23;;;5.30;99.90;;;;;;5032152;28;20432;-78
2021/03/07 10:17:41;;;;;;;10.10;8.53;;;5.60;99.90;;;;;;5033145;28;20383;-75
2021/03/07 10:20:10;;;;;;;10.80;8.60;;;5.90;99.90;;;;;;5032507;28;20815;-77
2021/03/07 10:22:37;;;;;;;11.50;8.93;;;5.80;99.90;;;;;;5033135;28;20406;-77
2021/03/07 10:25:04;;;;;;;11.87;7.93;;;6.40;99.90;;;;;;5031606;28;20423;-75
2021/03/07 10:27:31;;;;;;;10.47;7.40;;;7.10;99.90;;;;;;5032004;28;20415;-74
2021/03/07 10:29:57;;;;;;;9.47;8.03;;;7.60;99.90;;;;;;5032232;28;20416;-75
2021/03/07 10:32:23;;;;;;;9.47;8.43;;;8.10;99.90;;;;;;5031739;28;20758;-75
2021/03/07 10:34:50;;;;;;;12.27;9.17;;;7.20;99.90;;;;;;5031719;28;20266;-77
2021/03/07 10:37:36;;;;;;;16.03;10.20;;;6.10;99.90;;;;;;5032163;28;20650;-77
2021/03/07 10:40:05;;;;;;;13.67;10.30;;;6.60;99.90;;;;;;5031965;28;20444;-76
2021/03/07 10:42:38;;;;;;;11.27;9.40;;;6.00;99.90;;;;;;5032966;28;20841;-75
2021/03/07 10:45:15;;;;;;;11.23;10.07;;;6.60;99.90;;;;;;5031665;28;20436;-77
2021/03/07 10:47:41;;;;;;;14.30;10.27;;;6.70;99.90;;;;;;5032177;28;20379;-77
2021/03/07 10:50:07;;;;;;;15.70;10.13;;;7.60;99.90;;;;;;5032613;28;20388;-77
2021/03/07 10:52:33;;;;;;;11.53;9.90;;;6.50;99.90;;;;;;5032203;28;20212;-76
2021/03/07 10:54:58;;;;;;;9.97;8.73;;;6.90;99.90;;;;;;5031228;28;20471;-77
2021/03/07 10:57:24;;;;;;;10.80;9.70;;;7.10;99.90;;;;;;5031993;28;20205;-77
2021/03/07 10:59:52;;;;;;;14.00;10.33;;;7.30;99.90;;;;;;5031914;28;20412;-80
2021/03/07 11:02:18;;;;;;;10.40;8.40;;;7.10;99.90;;;;;;5032303;28;20214;-79
2021/03/07 11:04:47;;;;;;;10.33;8.50;;;6.70;99.90;;;;;;5033274;28;20483;-78
2021/03/07 11:07:13;;;;;;;9.37;8.47;;;6.70;99.90;;;;;;5035601;28;20730;-77
2021/03/07 11:09:39;;;;;;;9.63;8.17;;;6.90;99.90;;;;;;5035116;28;20428;-76
2021/03/07 11:12:07;;;;;;;9.20;8.20;;;7.40;99.90;;;;;;5034786;28;20174;-76
2021/03/07 11:14:32;;;;;;;9.20;8.20;;;6.80;99.90;;;;;;5031829;28;20414;-76
2021/03/07 11:16:58;;;;;;;9.67;7.80;;;7.50;99.90;;;;;;5034763;28;20404;-76
2021/03/07 11:19:23;;;;;;;8.30;6.57;;;8.00;99.90;;;;;;5026743;28;20281;-77
2021/03/07 11:21:49;;;;;;;8.60;7.70;;;7.60;99.90;;;;;;5022925;28;20668;-77
2021/03/07 11:24:15;;;;;;;8.37;7.40;;;7.80;99.90;;;;;;5025506;28;20194;-76
2021/03/07 11:26:41;;;;;;;8.73;6.77;;;8.30;99.90;;;;;;5025504;28;20310;-76
2021/03/07 11:29:06;;;;;;;13.20;7.07;;;8.70;99.90;;;;;;5022828;28;20602;-77
2021/03/07 11:31:33;;;;;;;8.93;7.00;;;9.10;99.90;;;;;;5022961;28;20178;-77
2021/03/07 11:33:58;;;;;;;7.00;6.30;;;9.30;99.90;;;;;;5030256;28;20237;-76
2021/03/07 11:36:24;;;;;;;11.70;6.70;;;9.20;99.90;;;;;;5031504;28;20391;-76
2021/03/07 11:38:49;;;;;;;11.33;7.30;;;8.40;99.90;;;;;;5034916;28;20261;-77
2021/03/07 11:41:15;;;;;;;9.80;6.93;;;9.10;99.90;;;;;;5034607;28;20747;-77
2021/03/07 11:43:41;;;;;;;10.77;7.47;;;8.30;99.90;;;;;;5034478;28;20190;-76
2021/03/07 11:46:06;;;;;;;10.17;7.77;;;8.40;99.90;;;;;;5034956;28;20227;-78
2021/03/07 11:48:32;;;;;;;8.60;7.30;;;8.90;99.90;;;;;;5034306;28;20538;-76
2021/03/07 11:50:58;;;;;;;8.33;7.10;;;9.20;99.90;;;;;;5034766;28;20189;-77
2021/03/07 11:53:23;;;;;;;8.90;7.17;;;9.60;99.90;;;;;;5034399;28;20285;-77
2021/03/07 11:55:49;;;;;;;8.97;7.80;;;9.70;99.90;;;;;;5034820;28;20174;-77
2021/03/07 11:58:14;;;;;;;9.70;8.13;;;10.30;99.90;;;;;;5034942;28;20540;-75
2021/03/07 12:00:40;;;;;;;8.43;7.63;;;10.20;99.90;;;;;;5034937;28;20208;-76
2021/03/07 12:03:06;;;;;;;9.73;7.87;;;9.60;99.90;;;;;;5033560;28;20253;-76
2021/03/07 12:05:31;;;;;;;10.13;8.67;;;10.50;99.90;;;;;;5034707;28;20166;-77
2021/03/07 12:07:57;;;;;;;11.20;7.63;;;10.10;99.90;;;;;;5033736;28;20205;-77
2021/03/07 12:10:23;;;;;;;14.60;9.20;;;9.70;99.90;;;;;;5033652;28;20182;-78
2021/03/07 12:12:48;;;;;;;11.73;9.50;;;10.20;99.90;;;;;;5033113;28;20186;-76
2021/03/07 12:15:14;;;;;;;12.20;8.90;;;10.00;99.90;;;;;;5032309;28;20213;-77
2021/03/07 12:17:40;;;;;;;10.30;9.20;;;10.30;99.90;;;;;;5033838;28;20185;-76
2021/03/07 12:20:06;;;;;;;12.57;10.33;;;9.90;99.90;;;;;;5033092;28;20453;-76
2021/03/07 12:22:34;;;;;;;11.57;9.40;;;10.50;99.90;;;;;;5032478;28;20177;-77
2021/03/07 12:24:59;;;;;;;12.53;8.43;;;10.70;99.90;;;;;;5033142;28;20494;-79
2021/03/07 12:27:25;;;;;;;9.77;8.53;;;11.20;99.90;;;;;;5034170;28;20787;-76
2021/03/07 12:29:51;;;;;;;12.77;8.90;;;11.30;99.90;;;;;;5033709;28;20239;-76
2021/03/07 12:32:17;;;;;;;9.60;8.60;;;10.90;99.90;;;;;;5033859;28;20240;-76
2021/03/07 12:34:43;;;;;;;10.20;9.20;;;11.00;99.90;;;;;;5033303;28;20452;-78
2021/03/07 12:37:09;;;;;;;11.13;9.30;;;11.60;99.90;;;;;;5033233;28;20189;-76
2021/03/07 12:39:35;;;;;;;9.87;8.83;;;12.20;99.90;;;;;;5033603;28;20198;-79
2021/03/07 12:42:00;;;;;;;10.80;9.60;;;12.00;99.90;;;;;;5034549;28;20379;-78
2021/03/07 12:44:26;;;;;;;14.77;10.33;;;11.60;99.90;;;;;;5034311;28;20783;-76
2021/03/07 12:46:52;;;;;;;11.07;9.97;;;11.10;99.90;;;;;;5034857;28;20246;-78